sensor_id;sensor_type;location;lat;lon;timestamp;pressure;altitude;pressure_sealevel;temperature;humidity
12913;BME280;6524;51.368;11.984;2023-06-26T04:03:29;156240.63;;;16.05;69.83
12913;BME280;6524;51.368;11.984;2023-06-26T04:08:30;156224.91;;;15.99;70.04
12913;BME280;6524;51.368;11.984;2023-06-26T04:13:30;156321.91;;;16.37;68.47
12913;BME280;6524;51.368;11.984;2023-06-26T04:18:31;156245.91;;;16.07;69.01
12913;BME280;6524;51.368;11.984;2023-06-26T04:23:31;156303.56;;;16.30;69.03
12913;BME280;6524;51.368;11.984;2023-06-26T04:28:35;156391.47;;;16.64;67.43
12913;BME280;6524;51.368;11.984;2023-06-26T04:33:36;156390.19;;;16.63;67.83
12913;BME280;6524;51.368;11.984;2023-06-26T04:38:36;156434.75;;;16.81;67.13
12913;BME280;6524;51.368;11.984;2023-06-26T04:43:37;156487.25;;;17.01;66.15
12913;BME280;6524;51.368;11.984;2023-06-26T04:48:38;156463.63;;;16.92;67.06
12913;BME280;6524;51.368;11.984;2023-06-26T04:53:38;156558.09;;;17.29;65.61
12913;BME280;6524;51.368;11.984;2023-06-26T04:58:39;156670.94;;;17.73;63.38
12913;BME280;6524;51.368;11.984;2023-06-26T05:03:39;156607.97;;;17.48;64.25
12913;BME280;6524;51.368;11.984;2023-06-26T05:08:42;156644.69;;;17.62;64.22
12913;BME280;6524;51.368;11.984;2023-06-26T05:13:42;156699.88;;;17.84;63.75
12913;BME280;6524;51.368;11.984;2023-06-26T05:18:42;156716.94;;;17.91;63.04
12913;BME280;6524;51.368;11.984;2023-06-26T05:23:43;156694.59;;;17.82;63.60
12913;BME280;6524;51.368;11.984;2023-06-26T05:28:45;156762.88;;;18.08;63.32
12913;BME280;6524;51.368;11.984;2023-06-26T05:33:48;156865.34;;;18.48;62.31
12913;BME280;6524;51.368;11.984;2023-06-26T05:38:49;156904.75;;;18.64;61.83
12913;BME280;6524;51.368;11.984;2023-06-26T05:43:53;156944.09;;;18.79;61.11
12913;BME280;6524;51.368;11.984;2023-06-26T05:48:54;157003.22;;;19.02;59.80
12913;BME280;6524;51.368;11.984;2023-06-26T05:53:55;157061.06;;;19.25;59.30
12913;BME280;6524;51.368;11.984;2023-06-26T05:58:56;157054.47;;;19.22;57.87
12913;BME280;6524;51.368;11.984;2023-06-26T06:03:57;157054.47;;;19.22;57.19
12913;BME280;6524;51.368;11.984;2023-06-26T06:08:57;157174.03;;;19.68;55.92
12913;BME280;6524;51.368;11.984;2023-06-26T06:13:57;157301.56;;;20.18;54.74
12913;BME280;6524;51.368;11.984;2023-06-26T06:18:59;157280.50;;;20.10;54.15
12913;BME280;6524;51.368;11.984;2023-06-26T06:24:00;157401.50;;;20.57;53.52
12913;BME280;6524;51.368;11.984;2023-06-26T06:29:01;157393.59;;;20.54;53.52
12913;BME280;6524;51.368;11.984;2023-06-26T06:34:01;157377.81;;;20.48;53.81
12913;BME280;6524;51.368;11.984;2023-06-26T06:39:02;157434.34;;;20.70;52.93
12913;BME280;6524;51.368;11.984;2023-06-26T06:44:03;157493.56;;;20.93;53.24
12913;BME280;6524;51.368;11.984;2023-06-26T06:49:04;157538.28;;;21.10;51.80
12913;BME280;6524;51.368;11.984;2023-06-26T06:54:06;157609.31;;;21.38;52.00
12913;BME280;6524;51.368;11.984;2023-06-26T06:59:06;157764.56;;;21.98;50.63
12913;BME280;6524;51.368;11.984;2023-06-26T07:04:07;157806.66;;;22.14;49.03
12913;BME280;6524;51.368;11.984;2023-06-26T07:09:08;157843.56;;;22.29;48.87
12913;BME280;6524;51.368;11.984;2023-06-26T07:14:08;157975.22;;;22.80;48.07
12913;BME280;6524;51.368;11.984;2023-06-26T07:19:09;157998.91;;;22.89;48.17
12913;BME280;6524;51.368;11.984;2023-06-26T07:24:10;158079.22;;;23.20;47.76
12913;BME280;6524;51.368;11.984;2023-06-26T07:29:11;158241.25;;;23.83;46.18
12913;BME280;6524;51.368;11.984;2023-06-26T07:34:11;158228.09;;;23.78;45.49
12913;BME280;6524;51.368;11.984;2023-06-26T07:39:12;158336.13;;;24.20;43.89
12913;BME280;6524;51.368;11.984;2023-06-26T07:44:12;158415.25;;;24.51;43.17
12913;BME280;6524;51.368;11.984;2023-06-26T07:49:14;158569.47;;;25.10;42.05
12913;BME280;6524;51.368;11.984;2023-06-26T07:54:15;158772.53;;;25.89;40.48
12913;BME280;6524;51.368;11.984;2023-06-26T07:59:15;158726.38;;;25.71;40.86
12913;BME280;6524;51.368;11.984;2023-06-26T08:04:18;158678.91;;;25.53;40.76
12913;BME280;6524;51.368;11.984;2023-06-26T08:09:20;158810.81;;;26.04;40.05
12913;BME280;6524;51.368;11.984;2023-06-26T08:14:21;158908.41;;;26.42;39.52
12913;BME280;6524;51.368;11.984;2023-06-26T08:19:21;159008.69;;;26.81;38.17
12913;BME280;6524;51.368;11.984;2023-06-26T08:24:22;158977.03;;;26.68;37.88
12913;BME280;6524;51.368;11.984;2023-06-26T08:29:23;159106.34;;;27.18;37.40
12913;BME280;6524;51.368;11.984;2023-06-26T08:34:24;159161.78;;;27.40;36.84
12913;BME280;6524;51.368;11.984;2023-06-26T08:39:25;159277.94;;;27.85;36.11
12913;BME280;6524;51.368;11.984;2023-06-26T08:44:28;159248.94;;;27.74;34.83
12913;BME280;6524;51.368;11.984;2023-06-26T08:54:57;159262.09;;;27.79;33.74
12913;BME280;6524;51.368;11.984;2023-06-26T09:00:01;159419.28;;;28.40;32.93
12913;BME280;6524;51.368;11.984;2023-06-26T09:05:17;159383.59;;;28.26;33.29
12913;BME280;6524;51.368;11.984;2023-06-26T09:10:21;159453.63;;;28.53;33.16
12913;BME280;6524;51.368;11.984;2023-06-26T09:15:23;159528.88;;;28.82;32.22
12913;BME280;6524;51.368;11.984;2023-06-26T09:20:27;159543.41;;;28.88;31.53
12913;BME280;6524;51.368;11.984;2023-06-26T09:25:30;159544.72;;;28.88;32.18
12913;BME280;6524;51.368;11.984;2023-06-26T09:30:35;159637.25;;;29.24;31.48
12913;BME280;6524;51.368;11.984;2023-06-26T09:35:38;159600.25;;;29.10;31.05
12913;BME280;6524;51.368;11.984;2023-06-26T09:40:41;159629.34;;;29.21;31.05
12913;BME280;6524;51.368;11.984;2023-06-26T09:45:45;159608.19;;;29.13;31.03
12913;BME280;6524;51.368;11.984;2023-06-26T09:50:46;159524.94;;;28.80;31.28
12913;BME280;6524;51.368;11.984;2023-06-26T09:55:49;159690.06;;;29.44;31.10
12913;BME280;6524;51.368;11.984;2023-06-26T10:00:51;159605.56;;;29.12;29.47
12913;BME280;6524;51.368;11.984;2023-06-26T10:06:10;159629.34;;;29.21;28.82
12913;BME280;6524;51.368;11.984;2023-06-26T10:11:16;159647.81;;;29.28;27.95
12913;BME280;6524;51.368;11.984;2023-06-26T10:16:26;159750.91;;;29.68;28.37
12913;BME280;6524;51.368;11.984;2023-06-26T10:21:29;159752.22;;;29.68;28.31
12913;BME280;6524;51.368;11.984;2023-06-26T10:26:40;159819.63;;;29.94;27.54
12913;BME280;6524;51.368;11.984;2023-06-26T10:31:44;159817.00;;;29.93;28.29
12913;BME280;6524;51.368;11.984;2023-06-26T10:37:00;159868.50;;;30.13;27.77
12913;BME280;6524;51.368;11.984;2023-06-26T10:42:10;159867.19;;;30.13;27.56
12913;BME280;6524;51.368;11.984;2023-06-26T10:47:32;159891.00;;;30.22;28.26
12913;BME280;6524;51.368;11.984;2023-06-26T10:52:39;159920.09;;;30.33;28.27
12913;BME280;6524;51.368;11.984;2023-06-26T10:57:39;159938.63;;;30.40;27.21
12913;BME280;6524;51.368;11.984;2023-06-26T11:02:51;160044.34;;;30.81;27.00
12913;BME280;6524;51.368;11.984;2023-06-26T11:08:09;160054.94;;;30.85;25.82
12913;BME280;6524;51.368;11.984;2023-06-26T11:13:12;160023.19;;;30.73;26.97
12913;BME280;6524;51.368;11.984;2023-06-26T11:18:21;159966.34;;;30.51;26.85
12913;BME280;6524;51.368;11.984;2023-06-26T11:23:25;159946.53;;;30.44;26.49
12913;BME280;6524;51.368;11.984;2023-06-26T11:28:29;160054.94;;;30.85;26.15
12913;BME280;6524;51.368;11.984;2023-06-26T11:33:34;160062.88;;;30.88;25.69
12913;BME280;6524;51.368;11.984;2023-06-26T11:38:39;160003.38;;;30.65;26.25
12913;BME280;6524;51.368;11.984;2023-06-26T11:43:40;159946.53;;;30.44;26.60
12913;BME280;6524;51.368;11.984;2023-06-26T11:48:45;159711.25;;;29.53;27.34
12913;BME280;6524;51.368;11.984;2023-06-26T11:53:48;159811.66;;;29.91;26.78
12913;BME280;6524;51.368;11.984;2023-06-26T11:59:06;159679.50;;;29.40;26.83
12913;BME280;6524;51.368;11.984;2023-06-26T12:04:08;159847.41;;;30.05;27.46
12913;BME280;6524;51.368;11.984;2023-06-26T12:09:10;159893.63;;;30.23;25.98
12913;BME280;6524;51.368;11.984;2023-06-26T12:14:11;160073.50;;;30.93;26.09
12913;BME280;6524;51.368;11.984;2023-06-26T12:19:16;160094.63;;;31.01;26.18
12913;BME280;6524;51.368;11.984;2023-06-26T12:24:20;160138.28;;;31.18;24.57
12913;BME280;6524;51.368;11.984;2023-06-26T12:29:42;160036.41;;;30.78;25.54
12913;BME280;6524;51.368;11.984;2023-06-26T12:34:48;160069.50;;;30.91;24.96
12913;BME280;6524;51.368;11.984;2023-06-26T12:39:53;160007.31;;;30.67;25.56
12913;BME280;6524;51.368;11.984;2023-06-26T12:44:55;159912.16;;;30.30;26.67
12913;BME280;6524;51.368;11.984;2023-06-26T12:50:04;159846.09;;;30.05;26.88
12913;BME280;6524;51.368;11.984;2023-06-26T12:55:08;159809.03;;;29.90;26.40
12913;BME280;6524;51.368;11.984;2023-06-26T13:00:09;159773.38;;;29.77;26.27
12913;BME280;6524;51.368;11.984;2023-06-26T13:05:10;160015.25;;;30.70;25.19
12913;BME280;6524;51.368;11.984;2023-06-26T13:10:11;160057.63;;;30.86;24.76
12913;BME280;6524;51.368;11.984;2023-06-26T13:15:11;160134.28;;;31.16;24.56
12913;BME280;6524;51.368;11.984;2023-06-26T13:20:12;160138.28;;;31.18;23.71
12913;BME280;6524;51.368;11.984;2023-06-26T13:25:14;160003.38;;;30.65;24.76
12913;BME280;6524;51.368;11.984;2023-06-26T13:30:15;159803.72;;;29.88;25.55
12913;BME280;6524;51.368;11.984;2023-06-26T13:35:16;159489.25;;;28.67;26.94
12913;BME280;6524;51.368;11.984;2023-06-26T13:40:17;158907.09;;;26.41;46.01
12913;BME280;6524;51.368;11.984;2023-06-26T13:45:18;158558.94;;;25.06;50.72
12913;BME280;6524;51.368;11.984;2023-06-26T13:50:18;158417.88;;;24.52;54.85
12913;BME280;6524;51.368;11.984;2023-06-26T13:55:19;158554.97;;;25.05;51.90
12913;BME280;6524;51.368;11.984;2023-06-26T14:00:22;158849.03;;;26.19;50.29
12913;BME280;6524;51.368;11.984;2023-06-26T14:05:23;159020.59;;;26.85;46.72
12913;BME280;6524;51.368;11.984;2023-06-26T14:10:24;159119.56;;;27.23;45.66
12913;BME280;6524;51.368;11.984;2023-06-26T14:15:26;159177.63;;;27.46;44.90
12913;BME280;6524;51.368;11.984;2023-06-26T14:20:26;159134.09;;;27.29;43.87
12913;BME280;6524;51.368;11.984;2023-06-26T14:25:28;158992.84;;;26.74;45.27
12913;BME280;6524;51.368;11.984;2023-06-26T14:30:28;158940.13;;;26.54;44.56
12913;BME280;6524;51.368;11.984;2023-06-26T14:35:29;158758.00;;;25.83;46.37
12913;BME280;6524;51.368;11.984;2023-06-26T14:40:30;158572.09;;;25.11;48.20
12913;BME280;6524;51.368;11.984;2023-06-26T14:45:33;158612.94;;;25.27;48.29
12913;BME280;6524;51.368;11.984;2023-06-26T14:50:33;158710.53;;;25.65;48.23
12913;BME280;6524;51.368;11.984;2023-06-26T14:55:34;158589.22;;;25.18;48.61
12913;BME280;6524;51.368;11.984;2023-06-26T15:00:34;158478.50;;;24.75;47.04
12913;BME280;6524;51.368;11.984;2023-06-26T15:05:35;158423.16;;;24.54;46.76
12913;BME280;6524;51.368;11.984;2023-06-26T15:10:36;158399.44;;;24.44;47.70
12913;BME280;6524;51.368;11.984;2023-06-26T15:15:36;158332.16;;;24.18;49.05
12913;BME280;6524;51.368;11.984;2023-06-26T15:20:37;158417.88;;;24.52;48.58
12913;BME280;6524;51.368;11.984;2023-06-26T15:25:38;158241.25;;;23.83;50.18
12913;BME280;6524;51.368;11.984;2023-06-26T15:30:39;158162.22;;;23.52;52.05
12913;BME280;6524;51.368;11.984;2023-06-26T15:35:39;158188.59;;;23.63;51.56
12913;BME280;6524;51.368;11.984;2023-06-26T15:40:40;158221.50;;;23.75;50.83
12913;BME280;6524;51.368;11.984;2023-06-26T15:45:41;158124.06;;;23.38;52.19
12913;BME280;6524;51.368;11.984;2023-06-26T15:50:42;158259.72;;;23.90;51.15
12913;BME280;6524;51.368;11.984;2023-06-26T15:55:43;158233.34;;;23.80;51.51
12913;BME280;6524;51.368;11.984;2023-06-26T16:00:43;158147.78;;;23.47;51.45
12913;BME280;6524;51.368;11.984;2023-06-26T16:05:44;158156.97;;;23.50;51.06
12913;BME280;6524;51.368;11.984;2023-06-26T16:10:45;158102.94;;;23.29;51.41
12913;BME280;6524;51.368;11.984;2023-06-26T16:15:46;158101.63;;;23.29;51.75
12913;BME280;6524;51.368;11.984;2023-06-26T16:20:46;158134.59;;;23.42;51.50
12913;BME280;6524;51.368;11.984;2023-06-26T16:25:50;158059.50;;;23.13;52.13
12913;BME280;6524;51.368;11.984;2023-06-26T16:30:50;158027.91;;;23.00;52.01
12913;BME280;6524;51.368;11.984;2023-06-26T16:35:51;157967.28;;;22.77;48.95
12913;BME280;6524;51.368;11.984;2023-06-26T16:40:51;157883.06;;;22.44;46.76
12913;BME280;6524;51.368;11.984;2023-06-26T16:45:52;157867.28;;;22.38;46.29
12913;BME280;6524;51.368;11.984;2023-06-26T16:50:53;157892.28;;;22.48;47.39
12913;BME280;6524;51.368;11.984;2023-06-26T16:55:54;157943.56;;;22.67;46.72
12913;BME280;6524;51.368;11.984;2023-06-26T17:00:54;158017.34;;;22.96;46.29
12913;BME280;6524;51.368;11.984;2023-06-26T17:05:55;158004.19;;;22.91;45.85
12913;BME280;6524;51.368;11.984;2023-06-26T17:10:56;158030.50;;;23.01;45.03
12913;BME280;6524;51.368;11.984;2023-06-26T17:15:56;158052.91;;;23.10;44.26
12913;BME280;6524;51.368;11.984;2023-06-26T17:20:57;158033.13;;;23.02;44.15
12913;BME280;6524;51.368;11.984;2023-06-26T17:25:58;158046.31;;;23.07;43.65
12913;BME280;6524;51.368;11.984;2023-06-26T17:30:58;158004.19;;;22.91;44.08
12913;BME280;6524;51.368;11.984;2023-06-26T17:35:59;158009.44;;;22.93;44.65
12913;BME280;6524;51.368;11.984;2023-06-26T17:40:59;157956.75;;;22.73;43.61
12913;BME280;6524;51.368;11.984;2023-06-26T17:46:00;157894.88;;;22.49;44.97
12913;BME280;6524;51.368;11.984;2023-06-26T17:51:01;157736.97;;;21.87;43.16
12913;BME280;6524;51.368;11.984;2023-06-26T17:56:02;157643.50;;;21.51;43.06
12913;BME280;6524;51.368;11.984;2023-06-26T18:01:03;157627.72;;;21.45;43.37
12913;BME280;6524;51.368;11.984;2023-06-26T18:06:04;157625.09;;;21.44;43.16
12913;BME280;6524;51.368;11.984;2023-06-26T18:11:04;157697.50;;;21.72;43.13
12913;BME280;6524;51.368;11.984;2023-06-26T18:16:06;157746.16;;;21.91;43.71
12913;BME280;6524;51.368;11.984;2023-06-26T18:21:09;157706.69;;;21.76;43.99
12913;BME280;6524;51.368;11.984;2023-06-26T18:26:10;157659.28;;;21.57;43.78
12913;BME280;6524;51.368;11.984;2023-06-26T18:31:10;157614.59;;;21.40;44.86
12913;BME280;6524;51.368;11.984;2023-06-26T18:36:11;157556.69;;;21.17;45.12
12913;BME280;6524;51.368;11.984;2023-06-26T18:41:15;157560.66;;;21.19;45.65
12913;BME280;6524;51.368;11.984;2023-06-26T18:46:16;157538.28;;;21.10;45.41
12913;BME280;6524;51.368;11.984;2023-06-26T18:51:16;157480.38;;;20.88;45.67
12913;BME280;6524;51.368;11.984;2023-06-26T18:56:17;157443.56;;;20.73;46.47
12913;BME280;6524;51.368;11.984;2023-06-26T19:01:39;157483.00;;;20.89;46.45
12913;BME280;6524;51.368;11.984;2023-06-26T19:06:40;157396.22;;;20.55;45.80
12913;BME280;6524;51.368;11.984;2023-06-26T19:11:40;157304.19;;;20.19;45.72
12913;BME280;6524;51.368;11.984;2023-06-26T19:16:41;157371.25;;;20.45;46.43
12913;BME280;6524;51.368;11.984;2023-06-26T19:21:42;157333.13;;;20.30;46.30
12913;BME280;6524;51.368;11.984;2023-06-26T19:26:42;157293.69;;;20.15;46.78
12913;BME280;6524;51.368;11.984;2023-06-26T19:31:43;157322.56;;;20.26;47.45
12913;BME280;6524;51.368;11.984;2023-06-26T19:36:43;157254.25;;;20.00;47.50
12913;BME280;6524;51.368;11.984;2023-06-26T20:28:16;156983.50;;;18.94;48.17
12913;BME280;6524;51.368;11.984;2023-06-26T20:33:17;156965.13;;;18.87;48.01
12913;BME280;6524;51.368;11.984;2023-06-26T20:38:17;156898.16;;;18.61;47.92
12913;BME280;6524;51.368;11.984;2023-06-26T20:43:18;156923.09;;;18.71;48.00
12913;BME280;6524;51.368;11.984;2023-06-26T20:48:19;156889.00;;;18.58;47.96
12913;BME280;6524;51.368;11.984;2023-06-26T20:53:20;156839.00;;;18.38;48.12
12913;BME280;6524;51.368;11.984;2023-06-26T20:58:21;156789.13;;;18.19;49.20
12913;BME280;6524;51.368;11.984;2023-06-26T21:03:21;156811.44;;;18.27;48.98
12913;BME280;6524;51.368;11.984;2023-06-26T21:08:22;156789.13;;;18.19;49.56
12913;BME280;6524;51.368;11.984;2023-06-26T21:13:22;156828.50;;;18.34;50.52
12913;BME280;6524;51.368;11.984;2023-06-26T21:18:23;156844.28;;;18.40;50.31
12913;BME280;6524;51.368;11.984;2023-06-26T21:23:25;156857.41;;;18.45;50.56
12913;BME280;6524;51.368;11.984;2023-06-26T21:28:26;156850.84;;;18.43;50.47
12913;BME280;6524;51.368;11.984;2023-06-26T21:33:26;156844.28;;;18.40;51.17
12913;BME280;6524;51.368;11.984;2023-06-26T21:38:27;156916.53;;;18.68;50.28
12913;BME280;6524;51.368;11.984;2023-06-26T21:43:28;156846.88;;;18.41;51.60
12913;BME280;6524;51.368;11.984;2023-06-26T21:48:29;156857.41;;;18.45;51.43
12913;BME280;6524;51.368;11.984;2023-06-26T21:53:29;156776.03;;;18.14;52.67
12913;BME280;6524;51.368;11.984;2023-06-26T21:58:30;156773.38;;;18.13;52.53
12913;BME280;6524;51.368;11.984;2023-06-26T22:03:30;156798.31;;;18.22;51.66
12913;BME280;6524;51.368;11.984;2023-06-26T22:08:31;156757.63;;;18.06;52.08
12913;BME280;6524;51.368;11.984;2023-06-26T22:13:31;156769.47;;;18.11;51.98
12913;BME280;6524;51.368;11.984;2023-06-26T22:18:32;156760.28;;;18.07;51.92
12913;BME280;6524;51.368;11.984;2023-06-26T22:23:36;156723.50;;;17.93;52.36
12913;BME280;6524;51.368;11.984;2023-06-26T22:28:43;156702.47;;;17.85;52.38
12913;BME280;6524;51.368;11.984;2023-06-26T22:33:46;156690.66;;;17.80;52.24
12913;BME280;6524;51.368;11.984;2023-06-26T22:38:46;156618.47;;;17.52;53.17
